sensor_id;sensor_type;location;lat;lon;timestamp;P1;durP1;ratioP1;P2;durP2;ratioP2
20042;SDS011;10182;52.896;6.496;2023-07-31T00:03:29;5.13;;;3.93;;
20042;SDS011;10182;52.896;6.496;2023-07-31T00:08:30;8.03;;;5.20;;
20042;SDS011;10182;52.896;6.496;2023-07-31T00:13:32;7.40;;;5.07;;
20042;SDS011;10182;52.896;6.496;2023-07-31T00:18:35;6.50;;;5.27;;
20042;SDS011;10182;52.896;6.496;2023-07-31T00:23:37;7.83;;;5.43;;
20042;SDS011;10182;52.896;6.496;2023-07-31T00:28:38;5.97;;;5.27;;
20042;SDS011;10182;52.896;6.496;2023-07-31T00:33:42;5.80;;;5.30;;
20042;SDS011;10182;52.896;6.496;2023-07-31T00:38:44;6.73;;;4.70;;
20042;SDS011;10182;52.896;6.496;2023-07-31T00:43:45;7.57;;;5.47;;
20042;SDS011;10182;52.896;6.496;2023-07-31T00:48:49;5.67;;;4.63;;
20042;SDS011;10182;52.896;6.496;2023-07-31T00:53:51;5.30;;;4.80;;
20042;SDS011;10182;52.896;6.496;2023-07-31T00:58:56;5.57;;;4.20;;
20042;SDS011;10182;52.896;6.496;2023-07-31T01:03:59;3.33;;;3.03;;
20042;SDS011;10182;52.896;6.496;2023-07-31T01:09:02;6.00;;;3.40;;
20042;SDS011;10182;52.896;6.496;2023-07-31T01:14:05;3.30;;;2.80;;
20042;SDS011;10182;52.896;6.496;2023-07-31T01:19:08;3.57;;;3.10;;
20042;SDS011;10182;52.896;6.496;2023-07-31T01:24:21;3.13;;;2.30;;
20042;SDS011;10182;52.896;6.496;2023-07-31T01:29:29;2.17;;;1.87;;
20042;SDS011;10182;52.896;6.496;2023-07-31T01:34:39;2.33;;;2.13;;
20042;SDS011;10182;52.896;6.496;2023-07-31T01:39:42;3.57;;;2.00;;
20042;SDS011;10182;52.896;6.496;2023-07-31T01:44:45;2.73;;;2.20;;
20042;SDS011;10182;52.896;6.496;2023-07-31T01:49:46;3.77;;;1.73;;
20042;SDS011;10182;52.896;6.496;2023-07-31T01:54:48;2.40;;;2.20;;
20042;SDS011;10182;52.896;6.496;2023-07-31T01:59:51;2.37;;;2.17;;
20042;SDS011;10182;52.896;6.496;2023-07-31T02:04:53;1.93;;;1.83;;
20042;SDS011;10182;52.896;6.496;2023-07-31T02:09:55;2.63;;;2.07;;
20042;SDS011;10182;52.896;6.496;2023-07-31T02:14:58;2.40;;;2.03;;
20042;SDS011;10182;52.896;6.496;2023-07-31T02:20:00;2.40;;;1.90;;
20042;SDS011;10182;52.896;6.496;2023-07-31T02:25:02;1.73;;;1.40;;
20042;SDS011;10182;52.896;6.496;2023-07-31T02:30:05;1.63;;;1.30;;
20042;SDS011;10182;52.896;6.496;2023-07-31T02:35:08;1.80;;;1.47;;
20042;SDS011;10182;52.896;6.496;2023-07-31T02:40:10;2.87;;;1.60;;
20042;SDS011;10182;52.896;6.496;2023-07-31T02:45:14;1.53;;;1.43;;
20042;SDS011;10182;52.896;6.496;2023-07-31T02:50:15;2.10;;;1.73;;
20042;SDS011;10182;52.896;6.496;2023-07-31T02:55:17;1.70;;;1.60;;
20042;SDS011;10182;52.896;6.496;2023-07-31T03:00:20;1.93;;;1.73;;
20042;SDS011;10182;52.896;6.496;2023-07-31T03:05:22;2.17;;;1.97;;
20042;SDS011;10182;52.896;6.496;2023-07-31T03:10:23;1.83;;;1.73;;
20042;SDS011;10182;52.896;6.496;2023-07-31T03:15:26;3.60;;;2.50;;
20042;SDS011;10182;52.896;6.496;2023-07-31T03:20:28;1.67;;;1.57;;
20042;SDS011;10182;52.896;6.496;2023-07-31T03:25:30;1.20;;;1.10;;
20042;SDS011;10182;52.896;6.496;2023-07-31T03:30:33;2.03;;;1.80;;
20042;SDS011;10182;52.896;6.496;2023-07-31T03:35:38;2.37;;;2.13;;
20042;SDS011;10182;52.896;6.496;2023-07-31T03:40:39;2.60;;;2.23;;
20042;SDS011;10182;52.896;6.496;2023-07-31T03:45:43;2.80;;;2.43;;
20042;SDS011;10182;52.896;6.496;2023-07-31T03:50:44;2.30;;;2.10;;
20042;SDS011;10182;52.896;6.496;2023-07-31T03:55:46;2.10;;;1.90;;
20042;SDS011;10182;52.896;6.496;2023-07-31T04:00:49;1.77;;;1.23;;
20042;SDS011;10182;52.896;6.496;2023-07-31T04:05:51;1.60;;;1.50;;
20042;SDS011;10182;52.896;6.496;2023-07-31T04:10:55;3.60;;;2.37;;
20042;SDS011;10182;52.896;6.496;2023-07-31T04:15:58;2.00;;;1.80;;
20042;SDS011;10182;52.896;6.496;2023-07-31T04:20:59;2.03;;;1.60;;
20042;SDS011;10182;52.896;6.496;2023-07-31T04:26:02;2.50;;;1.60;;
20042;SDS011;10182;52.896;6.496;2023-07-31T04:31:05;5.43;;;1.93;;
20042;SDS011;10182;52.896;6.496;2023-07-31T04:36:07;4.33;;;2.87;;
20042;SDS011;10182;52.896;6.496;2023-07-31T04:41:08;9.20;;;3.67;;
20042;SDS011;10182;52.896;6.496;2023-07-31T04:46:12;12.60;;;5.83;;
20042;SDS011;10182;52.896;6.496;2023-07-31T04:51:13;18.40;;;8.20;;
20042;SDS011;10182;52.896;6.496;2023-07-31T04:56:15;16.20;;;7.40;;
20042;SDS011;10182;52.896;6.496;2023-07-31T05:01:18;21.53;;;8.63;;
20042;SDS011;10182;52.896;6.496;2023-07-31T05:06:20;23.17;;;9.20;;
20042;SDS011;10182;52.896;6.496;2023-07-31T05:11:22;22.67;;;10.03;;
20042;SDS011;10182;52.896;6.496;2023-07-31T05:16:25;18.70;;;9.13;;
20042;SDS011;10182;52.896;6.496;2023-07-31T05:21:26;23.23;;;9.43;;
20042;SDS011;10182;52.896;6.496;2023-07-31T05:26:28;21.17;;;9.57;;
20042;SDS011;10182;52.896;6.496;2023-07-31T05:31:31;19.67;;;9.33;;
20042;SDS011;10182;52.896;6.496;2023-07-31T05:36:33;24.57;;;9.77;;
20042;SDS011;10182;52.896;6.496;2023-07-31T05:41:35;19.00;;;9.10;;
20042;SDS011;10182;52.896;6.496;2023-07-31T05:46:38;20.80;;;10.17;;
20042;SDS011;10182;52.896;6.496;2023-07-31T05:51:40;29.10;;;11.43;;
20042;SDS011;10182;52.896;6.496;2023-07-31T05:56:42;29.17;;;10.87;;
20042;SDS011;10182;52.896;6.496;2023-07-31T06:01:45;31.03;;;11.37;;
20042;SDS011;10182;52.896;6.496;2023-07-31T06:06:46;32.33;;;11.77;;
20042;SDS011;10182;52.896;6.496;2023-07-31T06:11:48;26.33;;;10.67;;
20042;SDS011;10182;52.896;6.496;2023-07-31T06:16:51;23.67;;;9.37;;
20042;SDS011;10182;52.896;6.496;2023-07-31T06:21:53;23.00;;;9.57;;
20042;SDS011;10182;52.896;6.496;2023-07-31T06:26:54;27.13;;;9.60;;
20042;SDS011;10182;52.896;6.496;2023-07-31T06:31:59;23.53;;;9.63;;
20042;SDS011;10182;52.896;6.496;2023-07-31T06:37:00;24.63;;;10.27;;
20042;SDS011;10182;52.896;6.496;2023-07-31T06:42:02;22.67;;;10.47;;
20042;SDS011;10182;52.896;6.496;2023-07-31T06:47:06;28.43;;;12.40;;
20042;SDS011;10182;52.896;6.496;2023-07-31T06:52:08;22.60;;;10.87;;
20042;SDS011;10182;52.896;6.496;2023-07-31T06:57:11;23.87;;;11.60;;
20042;SDS011;10182;52.896;6.496;2023-07-31T07:02:14;23.90;;;11.00;;
20042;SDS011;10182;52.896;6.496;2023-07-31T07:07:15;20.37;;;10.07;;
20042;SDS011;10182;52.896;6.496;2023-07-31T07:12:17;14.93;;;9.00;;
20042;SDS011;10182;52.896;6.496;2023-07-31T07:17:20;9.33;;;7.03;;
20042;SDS011;10182;52.896;6.496;2023-07-31T07:22:22;10.33;;;5.87;;
20042;SDS011;10182;52.896;6.496;2023-07-31T07:27:24;9.27;;;5.23;;
20042;SDS011;10182;52.896;6.496;2023-07-31T07:32:27;8.97;;;5.23;;
20042;SDS011;10182;52.896;6.496;2023-07-31T07:37:28;10.00;;;5.50;;
20042;SDS011;10182;52.896;6.496;2023-07-31T07:42:30;8.87;;;6.20;;
20042;SDS011;10182;52.896;6.496;2023-07-31T07:47:33;7.60;;;4.87;;
20042;SDS011;10182;52.896;6.496;2023-07-31T07:52:35;5.70;;;4.00;;
20042;SDS011;10182;52.896;6.496;2023-07-31T07:57:37;4.83;;;3.30;;
20042;SDS011;10182;52.896;6.496;2023-07-31T08:02:40;5.17;;;3.53;;
20042;SDS011;10182;52.896;6.496;2023-07-31T08:07:42;4.80;;;3.17;;
20042;SDS011;10182;52.896;6.496;2023-07-31T08:12:43;5.07;;;3.10;;
20042;SDS011;10182;52.896;6.496;2023-07-31T08:17:46;4.53;;;3.17;;
20042;SDS011;10182;52.896;6.496;2023-07-31T08:22:48;4.27;;;3.30;;
20042;SDS011;10182;52.896;6.496;2023-07-31T08:27:50;4.30;;;2.50;;
20042;SDS011;10182;52.896;6.496;2023-07-31T08:32:54;3.97;;;2.63;;
20042;SDS011;10182;52.896;6.496;2023-07-31T08:37:56;4.10;;;2.80;;
20042;SDS011;10182;52.896;6.496;2023-07-31T08:42:57;2.63;;;2.43;;
20042;SDS011;10182;52.896;6.496;2023-07-31T08:48:04;4.87;;;2.80;;
20042;SDS011;10182;52.896;6.496;2023-07-31T08:53:05;3.17;;;2.73;;
20042;SDS011;10182;52.896;6.496;2023-07-31T08:58:07;2.27;;;2.07;;
20042;SDS011;10182;52.896;6.496;2023-07-31T09:03:12;2.40;;;1.90;;
20042;SDS011;10182;52.896;6.496;2023-07-31T09:08:17;2.10;;;1.90;;
20042;SDS011;10182;52.896;6.496;2023-07-31T09:13:20;1.60;;;1.50;;
20042;SDS011;10182;52.896;6.496;2023-07-31T09:18:23;2.73;;;1.67;;
20042;SDS011;10182;52.896;6.496;2023-07-31T09:23:25;3.07;;;1.43;;
20042;SDS011;10182;52.896;6.496;2023-07-31T09:28:30;1.60;;;1.10;;
20042;SDS011;10182;52.896;6.496;2023-07-31T09:33:34;2.60;;;0.97;;
20042;SDS011;10182;52.896;6.496;2023-07-31T09:38:55;1.10;;;1.00;;
20042;SDS011;10182;52.896;6.496;2023-07-31T09:43:57;1.33;;;1.23;;
20042;SDS011;10182;52.896;6.496;2023-07-31T09:49:07;1.20;;;1.10;;
20042;SDS011;10182;52.896;6.496;2023-07-31T09:54:10;1.33;;;1.23;;
20042;SDS011;10182;52.896;6.496;2023-07-31T09:59:13;1.20;;;1.10;;
20042;SDS011;10182;52.896;6.496;2023-07-31T10:04:17;1.20;;;1.10;;
20042;SDS011;10182;52.896;6.496;2023-07-31T10:09:25;1.37;;;1.27;;
20042;SDS011;10182;52.896;6.496;2023-07-31T10:14:32;1.27;;;1.20;;
20042;SDS011;10182;52.896;6.496;2023-07-31T10:19:36;1.50;;;1.40;;
20042;SDS011;10182;52.896;6.496;2023-07-31T10:24:38;1.90;;;1.40;;
20042;SDS011;10182;52.896;6.496;2023-07-31T10:29:41;2.10;;;2.00;;
20042;SDS011;10182;52.896;6.496;2023-07-31T10:34:45;1.90;;;1.80;;
20042;SDS011;10182;52.896;6.496;2023-07-31T10:39:55;1.73;;;1.43;;
20042;SDS011;10182;52.896;6.496;2023-07-31T10:44:59;1.20;;;1.10;;
20042;SDS011;10182;52.896;6.496;2023-07-31T10:50:13;1.40;;;1.30;;
20042;SDS011;10182;52.896;6.496;2023-07-31T11:00:41;0.83;;;0.70;;
20042;SDS011;10182;52.896;6.496;2023-07-31T11:05:59;0.50;;;0.50;;
20042;SDS011;10182;52.896;6.496;2023-07-31T11:11:07;1.43;;;0.80;;
20042;SDS011;10182;52.896;6.496;2023-07-31T11:16:10;0.50;;;0.50;;
20042;SDS011;10182;52.896;6.496;2023-07-31T11:21:15;1.10;;;0.80;;
20042;SDS011;10182;52.896;6.496;2023-07-31T11:26:18;2.80;;;1.50;;
20042;SDS011;10182;52.896;6.496;2023-07-31T11:31:21;1.70;;;1.60;;
20042;SDS011;10182;52.896;6.496;2023-07-31T11:36:24;1.60;;;1.50;;
20042;SDS011;10182;52.896;6.496;2023-07-31T11:41:26;3.67;;;2.00;;
20042;SDS011;10182;52.896;6.496;2023-07-31T11:46:30;6.10;;;2.70;;
20042;SDS011;10182;52.896;6.496;2023-07-31T11:51:35;5.07;;;2.10;;
20042;SDS011;10182;52.896;6.496;2023-07-31T11:56:37;2.40;;;1.80;;
20042;SDS011;10182;52.896;6.496;2023-07-31T12:01:39;1.90;;;1.60;;
20042;SDS011;10182;52.896;6.496;2023-07-31T12:06:42;4.67;;;1.83;;
20042;SDS011;10182;52.896;6.496;2023-07-31T12:11:45;6.00;;;1.80;;
20042;SDS011;10182;52.896;6.496;2023-07-31T12:16:52;2.47;;;1.20;;
20042;SDS011;10182;52.896;6.496;2023-07-31T12:21:57;4.83;;;1.40;;
20042;SDS011;10182;52.896;6.496;2023-07-31T12:27:00;1.80;;;1.40;;
20042;SDS011;10182;52.896;6.496;2023-07-31T12:32:01;1.43;;;1.20;;
20042;SDS011;10182;52.896;6.496;2023-07-31T12:37:05;1.23;;;0.80;;
20042;SDS011;10182;52.896;6.496;2023-07-31T12:42:07;2.50;;;1.10;;
20042;SDS011;10182;52.896;6.496;2023-07-31T12:47:09;3.33;;;1.73;;
20042;SDS011;10182;52.896;6.496;2023-07-31T12:52:12;2.37;;;1.40;;
20042;SDS011;10182;52.896;6.496;2023-07-31T12:57:13;2.83;;;1.23;;
20042;SDS011;10182;52.896;6.496;2023-07-31T13:02:15;1.50;;;1.20;;
20042;SDS011;10182;52.896;6.496;2023-07-31T13:07:18;5.37;;;1.73;;
20042;SDS011;10182;52.896;6.496;2023-07-31T13:12:20;4.57;;;2.40;;
20042;SDS011;10182;52.896;6.496;2023-07-31T13:17:21;7.27;;;2.83;;
20042;SDS011;10182;52.896;6.496;2023-07-31T13:22:24;7.20;;;3.57;;
20042;SDS011;10182;52.896;6.496;2023-07-31T13:27:26;9.33;;;3.40;;
20042;SDS011;10182;52.896;6.496;2023-07-31T13:32:29;6.57;;;3.90;;
20042;SDS011;10182;52.896;6.496;2023-07-31T13:37:32;7.60;;;3.50;;
20042;SDS011;10182;52.896;6.496;2023-07-31T13:42:34;7.10;;;3.13;;
20042;SDS011;10182;52.896;6.496;2023-07-31T13:47:35;7.27;;;3.33;;
20042;SDS011;10182;52.896;6.496;2023-07-31T13:52:38;7.87;;;3.40;;
20042;SDS011;10182;52.896;6.496;2023-07-31T13:57:40;8.60;;;3.70;;
20042;SDS011;10182;52.896;6.496;2023-07-31T14:02:42;10.60;;;3.80;;
20042;SDS011;10182;52.896;6.496;2023-07-31T14:07:45;8.40;;;3.60;;
20042;SDS011;10182;52.896;6.496;2023-07-31T14:12:46;12.10;;;4.07;;
20042;SDS011;10182;52.896;6.496;2023-07-31T14:17:48;8.73;;;3.63;;
20042;SDS011;10182;52.896;6.496;2023-07-31T14:22:51;9.13;;;3.97;;
20042;SDS011;10182;52.896;6.496;2023-07-31T14:27:53;8.43;;;4.10;;
20042;SDS011;10182;52.896;6.496;2023-07-31T14:32:55;9.63;;;3.87;;
20042;SDS011;10182;52.896;6.496;2023-07-31T14:37:58;10.43;;;4.20;;
20042;SDS011;10182;52.896;6.496;2023-07-31T14:42:59;11.10;;;3.93;;
20042;SDS011;10182;52.896;6.496;2023-07-31T14:48:01;11.67;;;4.13;;
20042;SDS011;10182;52.896;6.496;2023-07-31T14:53:04;8.57;;;3.20;;
20042;SDS011;10182;52.896;6.496;2023-07-31T14:58:06;5.17;;;2.97;;
20042;SDS011;10182;52.896;6.496;2023-07-31T15:03:07;5.17;;;3.17;;
20042;SDS011;10182;52.896;6.496;2023-07-31T15:08:10;5.23;;;2.77;;
20042;SDS011;10182;52.896;6.496;2023-07-31T15:13:12;6.93;;;2.50;;
20042;SDS011;10182;52.896;6.496;2023-07-31T15:18:14;6.63;;;2.47;;
20042;SDS011;10182;52.896;6.496;2023-07-31T15:23:17;5.00;;;2.30;;
20042;SDS011;10182;52.896;6.496;2023-07-31T15:28:19;6.13;;;2.33;;
20042;SDS011;10182;52.896;6.496;2023-07-31T15:33:20;4.30;;;2.70;;
20042;SDS011;10182;52.896;6.496;2023-07-31T15:38:23;4.63;;;2.10;;
20042;SDS011;10182;52.896;6.496;2023-07-31T15:43:25;4.77;;;2.63;;
20042;SDS011;10182;52.896;6.496;2023-07-31T15:48:27;5.73;;;2.40;;
20042;SDS011;10182;52.896;6.496;2023-07-31T15:53:30;6.37;;;2.73;;
20042;SDS011;10182;52.896;6.496;2023-07-31T15:58:32;10.07;;;3.43;;
20042;SDS011;10182;52.896;6.496;2023-07-31T16:03:34;7.30;;;3.43;;
20042;SDS011;10182;52.896;6.496;2023-07-31T16:08:37;6.50;;;4.57;;
20042;SDS011;10182;52.896;6.496;2023-07-31T16:13:41;5.33;;;3.60;;
20042;SDS011;10182;52.896;6.496;2023-07-31T16:18:43;6.43;;;3.70;;
20042;SDS011;10182;52.896;6.496;2023-07-31T16:23:46;4.33;;;3.60;;
20042;SDS011;10182;52.896;6.496;2023-07-31T16:28:48;4.13;;;3.47;;
20042;SDS011;10182;52.896;6.496;2023-07-31T16:33:50;4.47;;;4.00;;
20042;SDS011;10182;52.896;6.496;2023-07-31T16:38:53;4.70;;;3.70;;
20042;SDS011;10182;52.896;6.496;2023-07-31T16:43:54;4.50;;;4.10;;
20042;SDS011;10182;52.896;6.496;2023-07-31T16:48:56;7.47;;;4.43;;
20042;SDS011;10182;52.896;6.496;2023-07-31T16:53:59;6.97;;;3.80;;
20042;SDS011;10182;52.896;6.496;2023-07-31T16:59:01;5.17;;;4.63;;
20042;SDS011;10182;52.896;6.496;2023-07-31T17:04:03;5.43;;;4.40;;
20042;SDS011;10182;52.896;6.496;2023-07-31T17:09:06;5.57;;;4.50;;
20042;SDS011;10182;52.896;6.496;2023-07-31T17:14:08;7.03;;;3.57;;
20042;SDS011;10182;52.896;6.496;2023-07-31T17:19:09;5.40;;;3.47;;
20042;SDS011;10182;52.896;6.496;2023-07-31T17:24:12;4.67;;;3.27;;
20042;SDS011;10182;52.896;6.496;2023-07-31T17:29:14;5.60;;;3.80;;
20042;SDS011;10182;52.896;6.496;2023-07-31T17:34:17;6.37;;;3.50;;
20042;SDS011;10182;52.896;6.496;2023-07-31T17:39:20;5.00;;;4.03;;
20042;SDS011;10182;52.896;6.496;2023-07-31T17:44:21;5.50;;;3.93;;
20042;SDS011;10182;52.896;6.496;2023-07-31T17:49:23;5.80;;;3.77;;
20042;SDS011;10182;52.896;6.496;2023-07-31T17:54:26;6.43;;;4.30;;
20042;SDS011;10182;52.896;6.496;2023-07-31T17:59:28;6.43;;;4.40;;
20042;SDS011;10182;52.896;6.496;2023-07-31T18:04:30;6.10;;;4.90;;
20042;SDS011;10182;52.896;6.496;2023-07-31T18:09:33;6.90;;;4.93;;
20042;SDS011;10182;52.896;6.496;2023-07-31T18:14:35;8.60;;;4.40;;
20042;SDS011;10182;52.896;6.496;2023-07-31T18:19:38;8.23;;;4.70;;
20042;SDS011;10182;52.896;6.496;2023-07-31T18:24:41;8.93;;;4.57;;
20042;SDS011;10182;52.896;6.496;2023-07-31T18:29:42;6.17;;;4.40;;
20042;SDS011;10182;52.896;6.496;2023-07-31T18:34:44;8.33;;;4.53;;
20042;SDS011;10182;52.896;6.496;2023-07-31T18:39:47;6.17;;;5.53;;
20042;SDS011;10182;52.896;6.496;2023-07-31T18:44:49;6.73;;;4.60;;
20042;SDS011;10182;52.896;6.496;2023-07-31T18:49:50;4.10;;;3.10;;
20042;SDS011;10182;52.896;6.496;2023-07-31T18:54:53;2.87;;;1.83;;
20042;SDS011;10182;52.896;6.496;2023-07-31T18:59:55;1.63;;;1.40;;
20042;SDS011;10182;52.896;6.496;2023-07-31T19:04:57;2.17;;;1.97;;
20042;SDS011;10182;52.896;6.496;2023-07-31T19:10:00;3.77;;;2.87;;
20042;SDS011;10182;52.896;6.496;2023-07-31T19:15:02;3.20;;;2.63;;
20042;SDS011;10182;52.896;6.496;2023-07-31T19:20:05;6.43;;;3.43;;
20042;SDS011;10182;52.896;6.496;2023-07-31T19:25:09;6.30;;;3.17;;
20042;SDS011;10182;52.896;6.496;2023-07-31T19:30:11;6.30;;;3.53;;
20042;SDS011;10182;52.896;6.496;2023-07-31T19:35:14;4.77;;;3.77;;
20042;SDS011;10182;52.896;6.496;2023-07-31T19:40:17;6.70;;;4.87;;
20042;SDS011;10182;52.896;6.496;2023-07-31T19:45:21;5.20;;;4.70;;
20042;SDS011;10182;52.896;6.496;2023-07-31T19:50:23;5.33;;;4.83;;
20042;SDS011;10182;52.896;6.496;2023-07-31T19:55:26;6.43;;;4.40;;
20042;SDS011;10182;52.896;6.496;2023-07-31T20:00:29;4.17;;;3.87;;
20042;SDS011;10182;52.896;6.496;2023-07-31T20:05:31;4.80;;;4.43;;
20042;SDS011;10182;52.896;6.496;2023-07-31T20:10:34;5.90;;;5.40;;
20042;SDS011;10182;52.896;6.496;2023-07-31T20:15:36;6.43;;;5.20;;
20042;SDS011;10182;52.896;6.496;2023-07-31T20:20:37;5.60;;;5.10;;
20042;SDS011;10182;52.896;6.496;2023-07-31T20:25:40;5.10;;;4.70;;
20042;SDS011;10182;52.896;6.496;2023-07-31T20:30:43;5.30;;;4.63;;
20042;SDS011;10182;52.896;6.496;2023-07-31T20:35:44;5.77;;;3.63;;
20042;SDS011;10182;52.896;6.496;2023-07-31T20:40:49;5.80;;;3.50;;
20042;SDS011;10182;52.896;6.496;2023-07-31T20:45:51;5.20;;;3.50;;
20042;SDS011;10182;52.896;6.496;2023-07-31T20:50:53;5.03;;;3.77;;
20042;SDS011;10182;52.896;6.496;2023-07-31T20:55:56;4.70;;;3.37;;
20042;SDS011;10182;52.896;6.496;2023-07-31T21:00:58;5.30;;;3.30;;
20042;SDS011;10182;52.896;6.496;2023-07-31T21:06:00;4.60;;;3.10;;
20042;SDS011;10182;52.896;6.496;2023-07-31T21:11:03;4.97;;;3.50;;
20042;SDS011;10182;52.896;6.496;2023-07-31T21:16:04;6.27;;;4.10;;
20042;SDS011;10182;52.896;6.496;2023-07-31T21:21:06;5.73;;;4.87;;
20042;SDS011;10182;52.896;6.496;2023-07-31T21:26:10;7.90;;;6.90;;
20042;SDS011;10182;52.896;6.496;2023-07-31T21:31:12;9.60;;;7.80;;
20042;SDS011;10182;52.896;6.496;2023-07-31T21:36:15;13.10;;;5.70;;
20042;SDS011;10182;52.896;6.496;2023-07-31T21:41:18;7.93;;;5.33;;
20042;SDS011;10182;52.896;6.496;2023-07-31T21:46:19;8.77;;;6.47;;
20042;SDS011;10182;52.896;6.496;2023-07-31T21:51:21;6.83;;;5.93;;
20042;SDS011;10182;52.896;6.496;2023-07-31T21:56:24;7.47;;;5.83;;
20042;SDS011;10182;52.896;6.496;2023-07-31T22:01:26;10.90;;;5.97;;
20042;SDS011;10182;52.896;6.496;2023-07-31T22:06:28;9.10;;;5.87;;
20042;SDS011;10182;52.896;6.496;2023-07-31T22:11:31;9.07;;;5.23;;
20042;SDS011;10182;52.896;6.496;2023-07-31T22:16:33;14.63;;;5.00;;
20042;SDS011;10182;52.896;6.496;2023-07-31T22:21:35;14.13;;;5.30;;
20042;SDS011;10182;52.896;6.496;2023-07-31T22:26:39;11.23;;;4.87;;
20042;SDS011;10182;52.896;6.496;2023-07-31T22:31:41;6.53;;;4.53;;
20042;SDS011;10182;52.896;6.496;2023-07-31T22:36:43;9.23;;;4.77;;
20042;SDS011;10182;52.896;6.496;2023-07-31T22:41:46;9.13;;;3.83;;
20042;SDS011;10182;52.896;6.496;2023-07-31T22:46:47;12.83;;;4.93;;
20042;SDS011;10182;52.896;6.496;2023-07-31T22:51:49;9.33;;;5.00;;
20042;SDS011;10182;52.896;6.496;2023-07-31T22:56:52;9.70;;;5.30;;
20042;SDS011;10182;52.896;6.496;2023-07-31T23:01:55;11.10;;;5.83;;
20042;SDS011;10182;52.896;6.496;2023-07-31T23:06:57;10.50;;;6.47;;
20042;SDS011;10182;52.896;6.496;2023-07-31T23:12:00;13.80;;;7.83;;
20042;SDS011;10182;52.896;6.496;2023-07-31T23:17:02;12.43;;;7.90;;
20042;SDS011;10182;52.896;6.496;2023-07-31T23:22:04;15.17;;;8.97;;
20042;SDS011;10182;52.896;6.496;2023-07-31T23:27:07;16.27;;;9.67;;
20042;SDS011;10182;52.896;6.496;2023-07-31T23:32:09;13.77;;;9.97;;
20042;SDS011;10182;52.896;6.496;2023-07-31T23:37:11;15.97;;;9.97;;
20042;SDS011;10182;52.896;6.496;2023-07-31T23:42:14;15.00;;;9.70;;
20042;SDS011;10182;52.896;6.496;2023-07-31T23:47:16;12.83;;;10.23;;
20042;SDS011;10182;52.896;6.496;2023-07-31T23:52:18;16.43;;;11.17;;
20042;SDS011;10182;52.896;6.496;2023-07-31T23:57:21;20.53;;;10.53;;
